createdAt,value
2017-09-12T00:00:17.381Z,952.28
2017-09-12T00:00:57.962Z,952.29
2017-09-12T00:01:38.537Z,952.26
2017-09-12T00:02:19.122Z,952.26
2017-09-12T00:04:16.848Z,952.21
2017-09-12T00:04:57.430Z,952.25
2017-09-12T00:05:38.011Z,952.21
2017-09-12T00:06:18.587Z,952.19
2017-09-12T00:06:59.169Z,952.17
2017-09-12T00:07:39.746Z,952.23
2017-09-12T00:08:20.311Z,952.17
2017-09-12T00:09:00.893Z,952.25
2017-09-12T00:09:41.474Z,952.24
2017-09-12T00:10:22.050Z,952.21
2017-09-12T00:11:02.621Z,952.15
2017-09-12T00:11:43.190Z,952.2
2017-09-12T00:12:23.754Z,952.19
2017-09-12T00:13:04.337Z,952.21
2017-09-12T00:13:44.910Z,952.22
2017-09-12T00:14:25.482Z,952.23
2017-09-12T00:15:06.068Z,952.26
2017-09-12T00:15:46.650Z,952.24
2017-09-12T00:16:27.228Z,952.22
2017-09-12T00:17:22.314Z,952.21
2017-09-12T00:18:02.882Z,952.21
2017-09-12T00:18:43.459Z,952.21
2017-09-12T00:19:24.047Z,952.21
2017-09-12T00:20:04.626Z,952.2
2017-09-12T00:20:45.209Z,952.26
2017-09-12T00:21:25.792Z,952.21
2017-09-12T00:22:06.373Z,952.22
2017-09-12T00:22:46.945Z,952.21
2017-09-12T00:23:27.525Z,952.23
2017-09-12T00:24:08.109Z,952.25
2017-09-12T00:24:48.689Z,952.22
2017-09-12T00:25:29.264Z,952.19
2017-09-12T00:26:09.847Z,952.23
2017-09-12T00:26:50.426Z,952.18
2017-09-12T00:27:31.009Z,952.22
2017-09-12T00:28:11.588Z,952.15
2017-09-12T00:28:52.166Z,952.17
2017-09-12T00:29:32.738Z,952.14
2017-09-12T00:30:13.319Z,952.17
2017-09-12T00:30:53.896Z,952.17
2017-09-12T00:31:34.482Z,952.17
2017-09-12T00:32:15.060Z,952.19
2017-09-12T00:32:55.647Z,952.19
2017-09-12T00:33:36.221Z,952.23
2017-09-12T00:34:31.331Z,952.21
2017-09-12T00:35:11.903Z,952.19
2017-09-12T00:35:52.476Z,952.21
2017-09-12T00:36:33.052Z,952.23
2017-09-12T00:37:13.632Z,952.17
2017-09-12T00:37:54.212Z,952.21
2017-09-12T00:38:34.792Z,952.21
2017-09-12T00:39:15.376Z,952.21
2017-09-12T00:39:55.956Z,952.2
2017-09-12T00:40:36.535Z,952.24
2017-09-12T00:41:17.107Z,952.2
2017-09-12T00:41:57.696Z,952.18
2017-09-12T00:42:38.272Z,952.23
2017-09-12T00:43:18.856Z,952.2
2017-09-12T00:43:59.431Z,952.24
2017-09-12T00:44:40.009Z,952.25
2017-09-12T00:45:20.586Z,952.25
2017-09-12T00:46:01.168Z,952.26
2017-09-12T00:46:41.743Z,952.27
2017-09-12T00:47:22.325Z,952.27
2017-09-12T00:48:02.904Z,952.31
2017-09-12T00:48:43.488Z,952.27
2017-09-12T00:49:24.065Z,952.33
2017-09-12T00:50:04.651Z,952.28
2017-09-12T00:50:45.226Z,952.3
2017-09-12T00:51:25.806Z,952.28
2017-09-12T00:52:06.386Z,952.33
2017-09-12T00:52:46.965Z,952.32
2017-09-12T00:53:27.550Z,952.34
2017-09-12T00:54:08.121Z,952.38
2017-09-12T00:54:48.704Z,952.4
2017-09-12T00:55:29.279Z,952.38
2017-09-12T00:56:09.863Z,952.35
2017-09-12T00:56:50.440Z,952.44
2017-09-12T00:57:31.022Z,952.36
2017-09-12T00:58:11.596Z,952.36
2017-09-12T00:58:52.179Z,952.39
2017-09-12T00:59:32.769Z,952.39
2017-09-12T01:00:13.334Z,952.37
2017-09-12T01:00:53.913Z,952.36
2017-09-12T01:01:34.501Z,952.36
2017-09-12T01:02:15.072Z,952.36
2017-09-12T01:02:55.658Z,952.35
2017-09-12T01:03:36.240Z,952.32
2017-09-12T01:04:16.821Z,952.34
2017-09-12T01:04:57.396Z,952.31
2017-09-12T01:05:37.985Z,952.3
2017-09-12T01:06:18.559Z,952.29
2017-09-12T01:06:59.144Z,952.28
2017-09-12T01:07:39.718Z,952.3
2017-09-12T01:08:20.299Z,952.31
2017-09-12T01:09:00.879Z,952.27
2017-09-12T01:09:41.463Z,952.27
2017-09-12T01:10:22.041Z,952.24
2017-09-12T01:11:02.623Z,952.22
2017-09-12T01:11:43.203Z,952.27
2017-09-12T01:12:23.789Z,952.24
2017-09-12T01:13:04.367Z,952.23
2017-09-12T01:13:44.951Z,952.24
2017-09-12T01:14:25.532Z,952.23
2017-09-12T01:15:06.114Z,952.21
2017-09-12T01:15:46.692Z,952.27
2017-09-12T01:16:27.273Z,952.24
2017-09-12T01:17:07.855Z,952.23
2017-09-12T01:17:48.428Z,952.24
2017-09-12T01:18:28.989Z,952.26
2017-09-12T01:19:09.573Z,952.24
2017-09-12T01:19:50.144Z,952.26
2017-09-12T01:20:30.727Z,952.24
2017-09-12T01:21:11.301Z,952.23
2017-09-12T01:21:51.863Z,952.24
2017-09-12T01:22:32.436Z,952.27
2017-09-12T01:23:13.022Z,952.24
2017-09-12T01:23:53.603Z,952.25
2017-09-12T01:24:34.185Z,952.22
2017-09-12T01:25:14.770Z,952.2
2017-09-12T01:25:55.350Z,952.19
2017-09-12T01:26:35.925Z,952.21
2017-09-12T01:27:16.506Z,952.19
2017-09-12T01:27:57.093Z,952.17
2017-09-12T01:28:37.648Z,952.18
2017-09-12T01:29:18.234Z,952.18
2017-09-12T01:29:58.812Z,952.19
2017-09-12T01:30:39.396Z,952.21
2017-09-12T01:31:19.979Z,952.16
2017-09-12T01:32:00.558Z,952.18
2017-09-12T01:32:41.133Z,952.23
2017-09-12T01:33:21.715Z,952.2
2017-09-12T01:34:02.297Z,952.22
2017-09-12T01:34:42.891Z,952.19
2017-09-12T01:35:23.474Z,952.2
2017-09-12T01:36:04.052Z,952.21
2017-09-12T01:36:44.625Z,952.22
2017-09-12T01:37:25.190Z,952.22
2017-09-12T01:38:05.770Z,952.22
2017-09-12T01:38:46.349Z,952.25
2017-09-12T01:39:26.924Z,952.24
2017-09-12T01:40:07.500Z,952.25
2017-09-12T01:40:48.082Z,952.26
2017-09-12T01:41:28.659Z,952.28
2017-09-12T01:42:09.234Z,952.22
2017-09-12T01:42:49.821Z,952.24
2017-09-12T01:43:30.400Z,952.28
2017-09-12T01:44:10.982Z,952.26
2017-09-12T01:44:51.560Z,952.26
2017-09-12T01:45:32.129Z,952.24
2017-09-12T01:46:12.716Z,952.28
2017-09-12T01:46:53.283Z,952.27
2017-09-12T01:47:33.866Z,952.24
2017-09-12T01:48:14.462Z,952.24
2017-09-12T01:48:55.028Z,952.21
2017-09-12T01:49:35.606Z,952.24
2017-09-12T01:50:16.181Z,952.24
2017-09-12T01:50:56.762Z,952.24
2017-09-12T01:51:37.337Z,952.2
2017-09-12T01:52:17.921Z,952.23
2017-09-12T01:52:58.503Z,952.23
2017-09-12T01:53:39.085Z,952.21
2017-09-12T01:54:19.658Z,952.21
2017-09-12T01:55:00.237Z,952.2
2017-09-12T01:55:40.817Z,952.23
2017-09-12T01:56:21.407Z,952.21
2017-09-12T01:57:01.987Z,952.24
2017-09-12T01:57:42.569Z,952.26
2017-09-12T01:58:23.141Z,952.23
2017-09-12T01:59:03.724Z,952.29
2017-09-12T01:59:44.303Z,952.26
2017-09-12T02:00:24.878Z,952.27
2017-09-12T02:01:05.459Z,952.29
2017-09-12T02:01:46.038Z,952.31
2017-09-12T02:02:26.614Z,952.29
2017-09-12T02:03:07.187Z,952.31
2017-09-12T02:03:47.760Z,952.31
2017-09-12T02:04:28.340Z,952.3
2017-09-12T02:05:08.915Z,952.32
2017-09-12T02:05:49.493Z,952.33
2017-09-12T02:06:30.070Z,952.33
2017-09-12T02:07:10.652Z,952.38
2017-09-12T02:07:51.225Z,952.35
2017-09-12T02:08:31.795Z,952.36
2017-09-12T02:09:12.369Z,952.37
2017-09-12T02:09:52.952Z,952.36
2017-09-12T02:10:33.530Z,952.38
2017-09-12T02:11:14.112Z,952.35
2017-09-12T02:11:54.690Z,952.38
2017-09-12T02:12:35.271Z,952.4
2017-09-12T02:13:15.849Z,952.38
2017-09-12T02:13:56.425Z,952.41
2017-09-12T02:14:37.000Z,952.39
2017-09-12T02:15:17.568Z,952.41
2017-09-12T02:15:58.152Z,952.42
2017-09-12T02:16:38.729Z,952.43
2017-09-12T02:17:19.300Z,952.45
2017-09-12T02:17:59.894Z,952.43
2017-09-12T02:18:40.472Z,952.43
2017-09-12T02:19:21.065Z,952.41
2017-09-12T02:20:01.641Z,952.41
2017-09-12T02:20:42.222Z,952.38
2017-09-12T02:21:22.795Z,952.38
2017-09-12T02:22:03.371Z,952.38
2017-09-12T02:22:43.948Z,952.36
2017-09-12T02:23:24.524Z,952.34
2017-09-12T02:24:05.107Z,952.35
2017-09-12T02:24:45.691Z,952.3
2017-09-12T02:25:26.278Z,952.3
2017-09-12T02:26:06.857Z,952.29
2017-09-12T02:26:47.437Z,952.25
2017-09-12T02:27:28.016Z,952.22
2017-09-12T02:28:08.593Z,952.29
2017-09-12T02:28:49.169Z,952.22
2017-09-12T02:29:29.765Z,952.26
2017-09-12T02:30:10.321Z,952.24
2017-09-12T02:30:50.918Z,952.28
2017-09-12T02:31:31.492Z,952.25
2017-09-12T02:32:12.092Z,952.23
2017-09-12T02:32:52.662Z,952.23
2017-09-12T02:33:33.234Z,952.23
2017-09-12T02:34:13.811Z,952.27
2017-09-12T02:34:54.400Z,952.26
2017-09-12T02:35:34.970Z,952.24
2017-09-12T02:36:15.548Z,952.24
2017-09-12T02:36:56.131Z,952.28
2017-09-12T02:37:36.708Z,952.25
2017-09-12T02:38:17.291Z,952.27
2017-09-12T02:38:57.876Z,952.24
2017-09-12T02:39:38.459Z,952.25
2017-09-12T02:40:19.034Z,952.27
2017-09-12T02:40:59.607Z,952.25
2017-09-12T02:41:40.180Z,952.22
2017-09-12T02:42:20.759Z,952.25
2017-09-12T02:43:01.345Z,952.27
2017-09-12T02:43:41.929Z,952.27
2017-09-12T02:44:22.509Z,952.21
2017-09-12T02:45:03.087Z,952.21
2017-09-12T02:45:43.670Z,952.25
2017-09-12T02:46:24.250Z,952.23
2017-09-12T02:47:04.820Z,952.22
2017-09-12T02:47:45.388Z,952.18
2017-09-12T02:48:25.971Z,952.23
2017-09-12T02:49:06.551Z,952.18
2017-09-12T02:49:47.127Z,952.2
2017-09-12T02:50:27.710Z,952.18
2017-09-12T02:51:08.290Z,952.17
2017-09-12T02:51:48.866Z,952.17
2017-09-12T02:52:29.442Z,952.16
2017-09-12T02:53:10.023Z,952.16
2017-09-12T02:53:50.590Z,952.14
2017-09-12T02:54:31.165Z,952.12
2017-09-12T02:55:11.724Z,952.15
2017-09-12T02:55:52.300Z,952.12
2017-09-12T02:56:32.883Z,952.1
2017-09-12T02:57:13.459Z,952.06
2017-09-12T02:57:54.050Z,952.09
2017-09-12T02:58:34.627Z,952.09
2017-09-12T02:59:15.200Z,952.13
2017-09-12T02:59:55.767Z,952.16
2017-09-12T03:00:36.340Z,952.08
2017-09-12T03:01:16.933Z,952.12
2017-09-12T03:01:57.517Z,952.12
2017-09-12T03:02:38.101Z,952.12
2017-09-12T03:03:18.676Z,952.11
2017-09-12T03:03:59.255Z,952.1
2017-09-12T03:04:39.838Z,952.09
2017-09-12T03:05:20.418Z,952.11
2017-09-12T03:06:01.000Z,952.12
2017-09-12T03:06:41.572Z,952.12
2017-09-12T03:07:22.157Z,952.09
2017-09-12T03:08:02.726Z,952.06
2017-09-12T03:08:43.312Z,952.02
2017-09-12T03:09:23.899Z,952.05
2017-09-12T03:10:04.478Z,952.04
2017-09-12T03:10:45.057Z,952.04
2017-09-12T03:11:25.639Z,952.03
2017-09-12T03:12:06.220Z,952.01
2017-09-12T03:12:46.790Z,952.03
2017-09-12T03:13:27.374Z,952.01
2017-09-12T03:14:07.953Z,951.99
2017-09-12T03:14:48.538Z,952.05
2017-09-12T03:15:29.121Z,952.02
2017-09-12T03:16:09.704Z,952.05
2017-09-12T03:16:50.285Z,952.06
2017-09-12T03:17:30.868Z,952.08
2017-09-12T03:18:11.442Z,952.1
2017-09-12T03:18:52.032Z,952.07
2017-09-12T03:19:32.600Z,952.06
2017-09-12T03:20:13.188Z,952.07
2017-09-12T03:20:53.771Z,952.03
2017-09-12T03:21:34.354Z,952.05
2017-09-12T03:22:14.936Z,952.04
2017-09-12T03:22:55.501Z,952.05
2017-09-12T03:23:36.084Z,952.02
2017-09-12T03:24:16.657Z,952.03
2017-09-12T03:24:57.246Z,952.01
2017-09-12T03:26:55.001Z,952.02
2017-09-12T03:27:35.568Z,952.01
2017-09-12T03:28:16.151Z,951.98
2017-09-12T03:28:56.725Z,952.02
2017-09-12T03:29:37.307Z,952.02
2017-09-12T03:30:17.887Z,952.02
2017-09-12T03:30:58.476Z,952.03
2017-09-12T03:31:39.064Z,952.02
2017-09-12T03:32:19.630Z,952.01
2017-09-12T03:33:00.210Z,952.03
2017-09-12T03:33:40.789Z,952.05
2017-09-12T03:34:21.367Z,952.08
2017-09-12T03:35:01.935Z,952.05
2017-09-12T03:35:42.518Z,952.04
2017-09-12T03:36:23.106Z,952.07
2017-09-12T03:37:03.678Z,952.08
2017-09-12T03:37:44.252Z,952.08
2017-09-12T03:38:24.826Z,952.07
2017-09-12T03:39:05.409Z,952.09
2017-09-12T03:39:45.981Z,952.03
2017-09-12T03:40:26.565Z,952.1
2017-09-12T03:41:07.151Z,952.11
2017-09-12T03:41:47.734Z,952.08
2017-09-12T03:42:28.314Z,952.12
2017-09-12T03:43:08.890Z,952.05
2017-09-12T03:43:49.459Z,952.06
2017-09-12T03:44:30.037Z,952.08
2017-09-12T03:45:10.615Z,952.08
2017-09-12T03:45:51.190Z,952.06
2017-09-12T03:46:31.760Z,952.09
2017-09-12T03:47:12.330Z,952.05
2017-09-12T03:47:52.916Z,952.08
2017-09-12T03:48:33.493Z,952.08
2017-09-12T03:49:14.070Z,952.1
2017-09-12T03:49:54.658Z,952.11
2017-09-12T03:50:35.236Z,952.09
2017-09-12T03:51:15.822Z,952.05
2017-09-12T03:51:56.407Z,952.06
2017-09-12T03:52:36.977Z,952.07
2017-09-12T03:53:17.553Z,952.11
2017-09-12T03:53:58.140Z,952.13
2017-09-12T03:54:38.725Z,952.13
2017-09-12T03:55:19.308Z,952.12
2017-09-12T03:55:59.880Z,952.13
2017-09-12T03:56:40.458Z,952.17
2017-09-12T03:57:21.038Z,952.18
2017-09-12T03:58:01.619Z,952.2
2017-09-12T03:58:42.200Z,952.19
2017-09-12T03:59:22.774Z,952.22
2017-09-12T04:00:03.365Z,952.23
2017-09-12T04:01:55.979Z,952.27
2017-09-12T04:02:36.564Z,952.27
2017-09-12T04:03:17.137Z,952.27
2017-09-12T04:03:57.708Z,952.25
2017-09-12T04:04:38.290Z,952.26
2017-09-12T04:05:18.863Z,952.27
2017-09-12T04:05:59.433Z,952.29
2017-09-12T04:06:40.012Z,952.27
2017-09-12T04:07:20.587Z,952.26
2017-09-12T04:08:01.145Z,952.27
2017-09-12T04:08:41.729Z,952.23
2017-09-12T04:09:22.307Z,952.24
2017-09-12T04:10:02.878Z,952.23
2017-09-12T04:10:43.449Z,952.26
2017-09-12T04:11:24.028Z,952.19
2017-09-12T04:12:04.600Z,952.2
2017-09-12T04:12:45.174Z,952.22
2017-09-12T04:13:25.746Z,952.22
2017-09-12T04:14:06.331Z,952.22
2017-09-12T04:14:46.901Z,952.24
2017-09-12T04:15:27.474Z,952.27
2017-09-12T04:16:08.052Z,952.26
2017-09-12T04:16:48.623Z,952.27
2017-09-12T04:17:29.195Z,952.31
2017-09-12T04:18:09.758Z,952.29
2017-09-12T04:18:50.345Z,952.29
2017-09-12T04:19:30.926Z,952.24
2017-09-12T04:20:11.493Z,952.24
2017-09-12T04:20:52.079Z,952.22
2017-09-12T04:21:32.657Z,952.2
2017-09-12T04:22:13.236Z,952.15
2017-09-12T04:22:53.812Z,952.18
2017-09-12T04:23:34.396Z,952.16
2017-09-12T04:24:14.967Z,952.18
2017-09-12T04:24:55.548Z,952.13
2017-09-12T04:25:36.123Z,952.16
2017-09-12T04:26:16.697Z,952.18
2017-09-12T04:26:57.293Z,952.18
2017-09-12T04:27:37.857Z,952.19
2017-09-12T04:28:18.424Z,952.17
2017-09-12T04:28:58.994Z,952.18
2017-09-12T04:29:39.570Z,952.18
2017-09-12T04:30:20.146Z,952.2
2017-09-12T04:31:00.735Z,952.26
2017-09-12T04:31:41.320Z,952.23
2017-09-12T04:32:21.891Z,952.22
2017-09-12T04:33:02.461Z,952.23
2017-09-12T04:33:43.047Z,952.23
2017-09-12T04:34:23.626Z,952.21
2017-09-12T04:35:04.198Z,952.2
2017-09-12T04:35:44.780Z,952.19
2017-09-12T04:36:25.367Z,952.23
2017-09-12T04:37:05.948Z,952.21
2017-09-12T04:37:46.522Z,952.19
2017-09-12T04:38:27.104Z,952.22
2017-09-12T04:39:07.674Z,952.22
2017-09-12T04:39:48.258Z,952.22
2017-09-12T04:40:28.837Z,952.26
2017-09-12T04:41:09.417Z,952.24
2017-09-12T04:41:50.001Z,952.22
2017-09-12T04:42:30.579Z,952.24
2017-09-12T04:43:11.154Z,952.19
2017-09-12T04:43:51.740Z,952.25
2017-09-12T04:44:32.317Z,952.24
2017-09-12T04:45:12.895Z,952.25
2017-09-12T04:45:53.474Z,952.26
2017-09-12T04:46:34.055Z,952.21
2017-09-12T04:47:14.638Z,952.24
2017-09-12T04:47:55.216Z,952.25
2017-09-12T04:48:36.793Z,952.24
2017-09-12T04:49:17.377Z,952.24
2017-09-12T04:49:57.964Z,952.23
2017-09-12T04:50:38.534Z,952.22
2017-09-12T04:51:19.123Z,952.26
2017-09-12T04:51:59.706Z,952.27
2017-09-12T04:52:40.290Z,952.32
2017-09-12T04:53:20.863Z,952.29
2017-09-12T04:54:01.441Z,952.27
2017-09-12T04:54:42.017Z,952.32
2017-09-12T04:55:22.603Z,952.3
2017-09-12T04:56:03.180Z,952.33
2017-09-12T04:56:43.764Z,952.34
2017-09-12T04:57:24.346Z,952.32
2017-09-12T04:58:04.926Z,952.33
2017-09-12T04:58:45.502Z,952.33
2017-09-12T04:59:26.085Z,952.34
2017-09-12T05:00:06.651Z,952.31
2017-09-12T05:00:47.234Z,952.32
2017-09-12T05:01:27.807Z,952.32
2017-09-12T05:02:08.399Z,952.34
2017-09-12T05:02:48.989Z,952.33
2017-09-12T05:03:29.567Z,952.38
2017-09-12T05:04:10.150Z,952.4
2017-09-12T05:04:50.724Z,952.43
2017-09-12T05:05:31.302Z,952.44
2017-09-12T05:06:11.879Z,952.44
2017-09-12T05:06:52.464Z,952.41
2017-09-12T05:07:33.040Z,952.44
2017-09-12T05:08:13.608Z,952.42
2017-09-12T05:08:54.189Z,952.42
2017-09-12T05:09:34.764Z,952.5
2017-09-12T05:10:15.332Z,952.46
2017-09-12T05:10:55.907Z,952.5
2017-09-12T05:11:36.489Z,952.46
2017-09-12T05:12:17.072Z,952.51
2017-09-12T05:12:57.655Z,952.51
2017-09-12T05:13:38.236Z,952.47
2017-09-12T05:14:18.809Z,952.51
2017-09-12T05:14:59.402Z,952.54
2017-09-12T05:15:39.972Z,952.49
2017-09-12T05:16:20.559Z,952.52
2017-09-12T05:17:01.129Z,952.56
2017-09-12T05:17:41.720Z,952.55
2017-09-12T05:18:22.293Z,952.51
2017-09-12T05:19:02.877Z,952.54
2017-09-12T05:19:43.458Z,952.58
2017-09-12T05:20:24.037Z,952.51
2017-09-12T05:21:04.609Z,952.51
2017-09-12T05:21:45.188Z,952.53
2017-09-12T05:22:25.759Z,952.52
2017-09-12T05:23:06.343Z,952.52
2017-09-12T05:23:46.928Z,952.58
2017-09-12T05:24:27.502Z,952.55
2017-09-12T05:25:08.098Z,952.54
2017-09-12T05:25:48.664Z,952.55
2017-09-12T05:26:29.255Z,952.56
2017-09-12T05:27:09.834Z,952.54
2017-09-12T05:27:50.409Z,952.54
2017-09-12T05:28:30.996Z,952.55
2017-09-12T05:29:11.579Z,952.53
2017-09-12T05:29:52.159Z,952.56
2017-09-12T05:30:32.729Z,952.58
2017-09-12T05:31:13.309Z,952.54
2017-09-12T05:31:53.877Z,952.54
2017-09-12T05:32:34.464Z,952.57
2017-09-12T05:33:15.046Z,952.6
2017-09-12T05:33:55.622Z,952.57
2017-09-12T05:34:36.208Z,952.61
2017-09-12T05:35:16.782Z,952.57
2017-09-12T05:35:57.372Z,952.64
2017-09-12T05:36:37.942Z,952.65
2017-09-12T05:37:18.521Z,952.66
2017-09-12T05:37:59.102Z,952.65
2017-09-12T05:38:39.682Z,952.7
2017-09-12T05:39:20.261Z,952.65
2017-09-12T05:40:00.843Z,952.65
2017-09-12T05:40:41.419Z,952.67
2017-09-12T05:41:22.005Z,952.66
2017-09-12T05:42:02.578Z,952.67
2017-09-12T05:42:43.153Z,952.7
2017-09-12T05:43:23.743Z,952.71
2017-09-12T05:44:04.317Z,952.68
2017-09-12T05:44:44.897Z,952.71
2017-09-12T05:45:25.473Z,952.74
2017-09-12T05:46:06.048Z,952.75
2017-09-12T05:46:46.629Z,952.76
2017-09-12T05:47:27.201Z,952.75
2017-09-12T05:48:07.796Z,952.74
2017-09-12T05:48:48.378Z,952.74
2017-09-12T05:49:28.956Z,952.76
2017-09-12T05:50:09.542Z,952.75
2017-09-12T05:50:50.126Z,952.78
2017-09-12T05:51:30.711Z,952.77
2017-09-12T05:52:11.298Z,952.75
2017-09-12T05:52:51.891Z,952.76
2017-09-12T05:53:32.448Z,952.77
2017-09-12T05:54:13.022Z,952.82
2017-09-12T05:54:53.608Z,952.82
2017-09-12T05:55:34.183Z,952.82
2017-09-12T05:56:14.757Z,952.79
2017-09-12T05:56:55.333Z,952.76
2017-09-12T05:57:35.916Z,952.78
2017-09-12T05:58:16.497Z,952.78
2017-09-12T05:58:57.087Z,952.76
2017-09-12T05:59:37.667Z,952.8
2017-09-12T06:00:18.250Z,952.82
2017-09-12T06:00:58.839Z,952.81
2017-09-12T06:01:39.415Z,952.81
2017-09-12T06:02:20.000Z,952.8
2017-09-12T06:03:00.580Z,952.81
2017-09-12T06:03:41.140Z,952.81
2017-09-12T06:04:21.723Z,952.83
2017-09-12T06:05:02.305Z,952.84
2017-09-12T06:05:42.893Z,952.84
2017-09-12T06:06:23.469Z,952.83
2017-09-12T06:07:04.061Z,952.87
2017-09-12T06:07:44.642Z,952.82
2017-09-12T06:08:25.232Z,952.85
2017-09-12T06:09:05.813Z,952.89
2017-09-12T06:09:46.382Z,952.84
2017-09-12T06:10:26.966Z,952.9
2017-09-12T06:11:07.545Z,952.85
2017-09-12T06:11:48.135Z,952.88
2017-09-12T06:12:28.712Z,952.89
2017-09-12T06:13:09.300Z,952.91
2017-09-12T06:13:49.878Z,952.89
2017-09-12T06:14:30.458Z,952.92
2017-09-12T06:15:11.042Z,952.92
2017-09-12T06:15:51.609Z,952.95
2017-09-12T06:16:32.173Z,952.95
2017-09-12T06:17:12.764Z,952.98
2017-09-12T06:17:53.344Z,952.96
2017-09-12T06:18:33.947Z,952.95
2017-09-12T06:19:14.498Z,952.97
2017-09-12T06:19:55.077Z,952.91
2017-09-12T06:20:35.651Z,952.95
2017-09-12T06:21:16.241Z,952.96
2017-09-12T06:21:56.822Z,952.99
2017-09-12T06:22:37.406Z,952.94
2017-09-12T06:23:17.991Z,952.95
2017-09-12T06:23:58.569Z,952.99
2017-09-12T06:24:39.145Z,952.93
2017-09-12T06:25:19.721Z,952.94
2017-09-12T06:26:00.295Z,952.91
2017-09-12T06:26:40.874Z,952.97
2017-09-12T06:27:21.471Z,952.95
2017-09-12T06:28:02.057Z,952.97
2017-09-12T06:28:42.627Z,952.97
2017-09-12T06:29:23.211Z,952.96
2017-09-12T06:30:03.789Z,952.93
2017-09-12T06:30:44.372Z,952.93
2017-09-12T06:31:24.962Z,952.94
2017-09-12T06:32:05.547Z,952.94
2017-09-12T06:32:46.122Z,952.92
2017-09-12T06:33:26.706Z,952.93
2017-09-12T06:34:07.286Z,952.99
2017-09-12T06:34:47.875Z,952.96
2017-09-12T06:35:28.463Z,952.97
2017-09-12T06:36:23.976Z,953.01
2017-09-12T06:37:04.557Z,953.01
2017-09-12T06:37:45.141Z,953
2017-09-12T06:38:25.725Z,953.03
2017-09-12T06:39:06.309Z,953
2017-09-12T06:39:46.883Z,953.02
2017-09-12T06:40:27.469Z,953.03
2017-09-12T06:41:08.040Z,953.04
2017-09-12T06:41:48.631Z,953.08
2017-09-12T06:42:29.215Z,953.06
2017-09-12T06:43:09.795Z,953.07
2017-09-12T06:43:50.381Z,953.13
2017-09-12T06:44:30.951Z,953.11
2017-09-12T06:45:11.536Z,953.1
2017-09-12T06:45:52.110Z,953.12
2017-09-12T06:46:32.686Z,953.08
2017-09-12T06:47:13.267Z,953.08
2017-09-12T06:49:31.219Z,953.21
2017-09-12T06:51:24.405Z,953.29
2017-09-12T06:52:04.985Z,953.25
2017-09-12T06:52:45.566Z,953.29
2017-09-12T06:53:26.141Z,953.26
2017-09-12T06:54:06.723Z,953.24
2017-09-12T06:54:47.307Z,953.23
2017-09-12T06:55:27.894Z,953.25
2017-09-12T06:56:08.466Z,953.26
2017-09-12T06:56:49.044Z,953.26
2017-09-12T06:57:29.627Z,953.23
2017-09-12T06:58:10.201Z,953.23
2017-09-12T06:58:50.783Z,953.18
2017-09-12T06:59:31.360Z,953.28
2017-09-12T07:00:11.935Z,953.26
2017-09-12T07:00:52.521Z,953.21
2017-09-12T07:01:33.091Z,953.22
2017-09-12T07:02:13.669Z,953.18
2017-09-12T07:02:54.250Z,953.23
2017-09-12T07:03:34.822Z,953.25
2017-09-12T07:04:15.413Z,953.28
2017-09-12T07:04:55.995Z,953.23
2017-09-12T07:05:36.575Z,953.23
2017-09-12T07:06:17.150Z,953.25
2017-09-12T07:06:57.727Z,953.26
2017-09-12T07:07:38.303Z,953.23
2017-09-12T07:08:18.895Z,953.2
2017-09-12T07:08:59.479Z,953.21
2017-09-12T07:09:40.056Z,953.24
2017-09-12T07:10:20.632Z,953.22
2017-09-12T07:11:01.210Z,953.24
2017-09-12T07:11:41.786Z,953.21
2017-09-12T07:12:22.369Z,953.18
2017-09-12T07:13:02.957Z,953.23
2017-09-12T07:13:43.539Z,953.28
2017-09-12T07:14:24.119Z,953.22
2017-09-12T07:15:04.703Z,953.25
2017-09-12T07:15:45.289Z,953.27
2017-09-12T07:16:25.875Z,953.26
2017-09-12T07:17:06.448Z,953.29
2017-09-12T07:17:47.023Z,953.29
2017-09-12T07:18:27.605Z,953.29
2017-09-12T07:19:08.188Z,953.32
2017-09-12T07:19:49.764Z,953.33
2017-09-12T07:20:30.353Z,953.34
2017-09-12T07:21:10.932Z,953.33
2017-09-12T07:21:51.516Z,953.33
2017-09-12T07:22:32.092Z,953.33
2017-09-12T07:23:12.678Z,953.32
2017-09-12T07:23:53.262Z,953.3
2017-09-12T07:24:33.850Z,953.33
2017-09-12T07:25:14.423Z,953.31
2017-09-12T07:25:54.992Z,953.28
2017-09-12T07:26:35.582Z,953.33
2017-09-12T07:27:16.157Z,953.34
2017-09-12T07:27:56.742Z,953.36
2017-09-12T07:28:37.313Z,953.36
2017-09-12T07:29:17.894Z,953.39
2017-09-12T07:29:58.475Z,953.42
2017-09-12T07:30:39.056Z,953.44
2017-09-12T07:31:19.639Z,953.43
2017-09-12T07:32:00.212Z,953.43
2017-09-12T07:32:40.780Z,953.43
2017-09-12T07:33:21.366Z,953.47
2017-09-12T07:34:01.950Z,953.41
2017-09-12T07:34:42.527Z,953.43
2017-09-12T07:35:23.118Z,953.48
2017-09-12T07:36:03.697Z,953.46
2017-09-12T07:36:44.281Z,953.5
2017-09-12T07:37:24.864Z,953.47
2017-09-12T07:38:05.446Z,953.49
2017-09-12T07:38:46.033Z,953.53
2017-09-12T07:39:26.610Z,953.56
2017-09-12T07:40:07.183Z,953.55
2017-09-12T07:40:47.772Z,953.54
2017-09-12T07:41:28.348Z,953.57
2017-09-12T07:42:08.925Z,953.57
2017-09-12T07:42:49.504Z,953.6
2017-09-12T07:43:30.081Z,953.65
2017-09-12T07:44:10.663Z,953.64
2017-09-12T07:44:51.245Z,953.63
2017-09-12T07:45:31.827Z,953.67
2017-09-12T07:46:12.409Z,953.67
2017-09-12T07:46:52.983Z,953.67
2017-09-12T07:47:33.563Z,953.71
2017-09-12T07:48:14.152Z,953.71
2017-09-12T07:48:54.739Z,953.73
2017-09-12T07:49:35.312Z,953.76
2017-09-12T07:50:15.896Z,953.74
2017-09-12T07:50:56.481Z,953.78
2017-09-12T07:51:37.066Z,953.74
2017-09-12T07:52:17.645Z,953.76
2017-09-12T07:52:58.233Z,953.78
2017-09-12T07:53:38.808Z,953.77
2017-09-12T07:54:19.398Z,953.77
2017-09-12T07:54:59.979Z,953.8
2017-09-12T07:55:40.562Z,953.81
2017-09-12T07:56:21.147Z,953.79
2017-09-12T07:57:01.730Z,953.82
2017-09-12T07:57:42.307Z,953.85
2017-09-12T07:58:22.887Z,953.87
2017-09-12T07:59:03.463Z,953.89
2017-09-12T07:59:44.040Z,953.87
2017-09-12T08:00:24.612Z,953.89
2017-09-12T08:01:05.193Z,953.96
2017-09-12T08:01:45.772Z,953.91
2017-09-12T08:02:26.350Z,953.97
2017-09-12T08:03:06.942Z,953.97
2017-09-12T08:03:47.516Z,953.99
2017-09-12T08:04:28.101Z,953.99
2017-09-12T08:05:08.680Z,954.01
2017-09-12T08:05:49.266Z,954.03
2017-09-12T08:06:29.852Z,954.07
2017-09-12T08:07:10.422Z,954.01
2017-09-12T08:07:51.016Z,954.04
2017-09-12T08:08:31.592Z,954.06
2017-09-12T08:09:12.174Z,954.08
2017-09-12T08:09:52.753Z,954.07
2017-09-12T08:10:33.335Z,954.05
2017-09-12T08:11:13.913Z,954.07
2017-09-12T08:11:54.497Z,954.08
2017-09-12T08:12:35.073Z,954.05
2017-09-12T08:13:15.645Z,954.06
2017-09-12T08:13:56.227Z,954.12
2017-09-12T08:14:36.814Z,954.05
2017-09-12T08:15:17.411Z,954.08
2017-09-12T08:15:57.973Z,954.11
2017-09-12T08:16:38.549Z,954.13
2017-09-12T08:17:19.130Z,954.15
2017-09-12T08:17:59.714Z,954.16
2017-09-12T08:18:40.296Z,954.14
2017-09-12T08:19:20.871Z,954.16
2017-09-12T08:20:01.453Z,954.15
2017-09-12T08:20:42.033Z,954.16
2017-09-12T08:21:22.612Z,954.18
2017-09-12T08:22:03.187Z,954.2
2017-09-12T08:22:43.758Z,954.24
2017-09-12T08:23:24.340Z,954.29
2017-09-12T08:24:04.917Z,954.28
2017-09-12T08:24:45.508Z,954.29
2017-09-12T08:25:26.088Z,954.33
2017-09-12T08:26:06.676Z,954.33
2017-09-12T08:26:47.270Z,954.36
2017-09-12T08:27:27.849Z,954.41
2017-09-12T08:28:08.425Z,954.38
2017-09-12T08:28:49.010Z,954.41
2017-09-12T08:29:29.590Z,954.38
2017-09-12T08:30:10.175Z,954.44
2017-09-12T08:30:50.761Z,954.42
2017-09-12T08:31:31.349Z,954.46
2017-09-12T08:32:11.931Z,954.47
2017-09-12T08:32:52.516Z,954.46
2017-09-12T08:33:33.098Z,954.46
2017-09-12T08:34:13.681Z,954.47
2017-09-12T08:34:54.267Z,954.48